createdAt,value
2018-05-18T00:00:55.219Z,104550.89
2018-05-18T00:03:22.793Z,104616.98
2018-05-18T00:05:50.317Z,104628.16
2018-05-18T00:08:17.833Z,104662.72
2018-05-18T00:10:45.492Z,104655.61
2018-05-18T00:13:13.010Z,104700.34
2018-05-18T00:15:40.539Z,104680.00
2018-05-18T00:18:08.081Z,104694.23
2018-05-18T00:20:35.614Z,104717.63
2018-05-18T00:23:03.568Z,104675.94
2018-05-18T00:25:31.090Z,104721.69
2018-05-18T00:27:58.607Z,104677.97
2018-05-18T00:30:26.170Z,104687.13
2018-05-18T00:32:53.686Z,104689.16
2018-05-18T00:35:21.345Z,104669.84
2018-05-18T00:37:48.874Z,104680.00
2018-05-18T00:40:16.434Z,104687.13
2018-05-18T00:42:43.987Z,104703.39
2018-05-18T00:45:11.529Z,104721.69
2018-05-18T00:47:39.062Z,104755.24
2018-05-18T00:50:06.974Z,104762.36
2018-05-18T00:52:34.507Z,104750.16
2018-05-18T00:55:02.027Z,104728.81
2018-05-18T00:57:29.690Z,104711.52
2018-05-18T00:59:57.214Z,104732.88
2018-05-18T01:02:24.759Z,104721.69
2018-05-18T01:04:52.358Z,104753.20
2018-05-18T01:07:19.906Z,104753.20
2018-05-18T01:09:47.429Z,104757.27
2018-05-18T01:12:15.351Z,104771.51
2018-05-18T01:14:42.865Z,104800.99
2018-05-18T01:17:10.393Z,104796.92
2018-05-18T01:19:37.948Z,104748.13
2018-05-18T01:22:05.470Z,104784.73
2018-05-18T01:24:33.030Z,104743.05
2018-05-18T01:27:00.554Z,104730.84
2018-05-18T01:29:28.077Z,104724.74
2018-05-18T01:31:55.817Z,104705.42
2018-05-18T01:34:23.338Z,104737.96
2018-05-18T01:36:50.859Z,104751.17
2018-05-18T01:39:18.450Z,104763.38
2018-05-18T01:41:45.983Z,104758.29
2018-05-18T01:44:13.520Z,104787.77
2018-05-18T01:46:41.262Z,104783.70
2018-05-18T01:49:08.776Z,104767.44
2018-05-18T01:51:36.289Z,104762.36
2018-05-18T01:54:03.986Z,104784.73
2018-05-18T01:56:31.503Z,104758.29
2018-05-18T01:58:59.021Z,104784.73
2018-05-18T02:01:26.714Z,104785.74
2018-05-18T02:03:54.235Z,104754.23
2018-05-18T02:06:22.029Z,104745.08
2018-05-18T02:08:49.601Z,104771.51
2018-05-18T02:11:17.155Z,104797.94
2018-05-18T02:13:44.678Z,104794.89
2018-05-18T02:16:12.203Z,104811.16
2018-05-18T02:18:39.790Z,104793.88
2018-05-18T02:21:07.318Z,104805.06
2018-05-18T02:23:34.833Z,104818.27
2018-05-18T02:26:02.384Z,104847.76
2018-05-18T02:28:29.898Z,104809.13
2018-05-18T02:30:57.551Z,104839.63
2018-05-18T02:33:25.078Z,104866.06
2018-05-18T02:35:52.607Z,104815.23
2018-05-18T02:38:20.146Z,104845.73
2018-05-18T02:40:47.674Z,104881.31
2018-05-18T02:43:15.249Z,104882.33
2018-05-18T02:45:42.762Z,104859.96
2018-05-18T02:48:10.288Z,104905.71
2018-05-18T02:50:37.851Z,104905.71
2018-05-18T02:53:05.370Z,104910.80
2018-05-18T02:55:32.933Z,104907.75
2018-05-18T02:58:00.445Z,104933.16
2018-05-18T03:00:27.976Z,104946.38
2018-05-18T03:02:55.515Z,104985.02
2018-05-18T03:05:23.071Z,104977.91
2018-05-18T03:07:50.984Z,104963.67
2018-05-18T03:10:18.510Z,104965.70
2018-05-18T03:12:46.034Z,104944.34
2018-05-18T03:15:13.592Z,104988.06
2018-05-18T03:17:41.113Z,104989.08
2018-05-18T03:20:08.682Z,104994.17
2018-05-18T03:22:36.197Z,104971.80
2018-05-18T03:25:03.734Z,104963.67
2018-05-18T03:27:31.249Z,104953.50
2018-05-18T03:29:58.833Z,104987.05
2018-05-18T03:32:26.345Z,104989.08
2018-05-18T03:34:53.883Z,104984.00
2018-05-18T03:37:21.455Z,105015.52
2018-05-18T03:39:48.979Z,105010.44
2018-05-18T03:42:16.500Z,105041.95
2018-05-18T03:44:44.470Z,105017.55
2018-05-18T03:47:11.982Z,105048.05
2018-05-18T03:49:39.503Z,105039.92
2018-05-18T03:52:07.082Z,105032.80
2018-05-18T03:54:34.606Z,104979.94
2018-05-18T03:57:02.122Z,105021.62
2018-05-18T03:59:29.713Z,104988.06
2018-05-18T04:02:09.165Z,104976.88
2018-05-18T04:04:48.565Z,104977.91
2018-05-18T04:10:20.158Z,104853.86
2018-05-18T04:12:47.618Z,104874.20
2018-05-18T04:15:15.668Z,104815.23
2018-05-18T04:17:43.186Z,104829.46
2018-05-18T04:20:10.701Z,104856.91
2018-05-18T04:22:38.241Z,104871.14
2018-05-18T04:25:05.765Z,104871.14
2018-05-18T04:27:33.322Z,104850.81
2018-05-18T04:30:00.946Z,104867.08
2018-05-18T04:32:28.433Z,104869.11
2018-05-18T04:34:55.950Z,104806.08
2018-05-18T04:37:23.498Z,104812.17
2018-05-18T04:39:51.047Z,104793.88
2018-05-18T04:42:18.578Z,104779.64
2018-05-18T04:44:46.157Z,104724.74
2018-05-18T04:47:13.673Z,104717.63
2018-05-18T04:49:41.192Z,104694.23
2018-05-18T04:52:08.729Z,104714.58
2018-05-18T04:54:36.249Z,104706.44
2018-05-18T04:57:03.805Z,104703.39
2018-05-18T04:59:31.374Z,104588.52
2018-05-18T05:01:58.886Z,104702.38
2018-05-18T05:04:26.402Z,104624.09
2018-05-18T05:06:53.999Z,104649.51
2018-05-18T05:09:21.523Z,104579.36
2018-05-18T05:11:49.041Z,104560.05
2018-05-18T05:14:16.585Z,104505.15
2018-05-18T05:16:44.101Z,104603.76
2018-05-18T05:19:11.651Z,104468.55
2018-05-18T05:21:39.169Z,104550.89
2018-05-18T05:24:06.709Z,104484.81
2018-05-18T05:26:34.278Z,104460.42
2018-05-18T05:29:01.810Z,104538.70
2018-05-18T05:31:29.338Z,104501.08
2018-05-18T05:33:56.881Z,104423.82
2018-05-18T05:36:24.403Z,104518.36
2018-05-18T05:38:51.942Z,104500.06
2018-05-18T05:41:19.457Z,104453.30
2018-05-18T05:43:47.178Z,104436.02
2018-05-18T05:46:14.695Z,104572.25
2018-05-18T05:48:42.215Z,104472.62
2018-05-18T05:51:09.795Z,104476.69
2018-05-18T05:53:37.323Z,104510.23
2018-05-18T05:56:04.874Z,104401.45
2018-05-18T05:58:32.467Z,104401.45
2018-05-18T06:00:59.971Z,104351.64
2018-05-18T06:03:27.489Z,104487.87
2018-05-18T06:05:55.237Z,104412.64
2018-05-18T06:08:22.766Z,104268.28
2018-05-18T06:10:50.292Z,104238.80
2018-05-18T06:13:17.829Z,104277.44
2018-05-18T06:15:45.373Z,104318.09
2018-05-18T06:18:12.948Z,104402.47
2018-05-18T06:20:40.469Z,104276.42
2018-05-18T06:23:07.982Z,104242.88
2018-05-18T06:25:35.526Z,104225.59
2018-05-18T06:28:03.050Z,104297.77
2018-05-18T06:30:30.603Z,104199.16
2018-05-18T06:32:58.135Z,104170.70
2018-05-18T06:35:25.673Z,104309.97
2018-05-18T06:37:53.199Z,104268.28
2018-05-18T06:40:20.779Z,104288.62
2018-05-18T06:42:48.299Z,104249.98
2018-05-18T06:45:15.826Z,104207.30
2018-05-18T06:47:43.362Z,104150.38
2018-05-18T06:50:10.882Z,104212.38
2018-05-18T06:52:38.509Z,104230.67
2018-05-18T06:55:05.968Z,104217.46
2018-05-18T06:57:33.519Z,104220.51
2018-05-18T07:00:01.446Z,104172.73
2018-05-18T07:02:28.960Z,104141.22
2018-05-18T07:04:56.513Z,104086.33
2018-05-18T07:07:24.091Z,104057.87
2018-05-18T07:09:51.605Z,104093.45
2018-05-18T07:12:19.134Z,103967.41
2018-05-18T07:14:46.877Z,104144.27
2018-05-18T07:17:14.393Z,103967.41
2018-05-18T07:19:41.909Z,104085.31
2018-05-18T07:22:09.448Z,103910.48
2018-05-18T07:24:36.974Z,103975.54
2018-05-18T07:27:04.522Z,103881.01
2018-05-18T07:29:32.093Z,104081.25
2018-05-18T07:31:59.610Z,104061.94
2018-05-18T07:34:27.157Z,104087.34
2018-05-18T07:36:54.697Z,103960.29
2018-05-18T07:39:22.242Z,104002.98
2018-05-18T07:41:49.762Z,103995.86
2018-05-18T07:44:17.453Z,103994.84
2018-05-18T07:46:44.972Z,103897.27
2018-05-18T07:49:12.498Z,104033.48
2018-05-18T07:51:40.042Z,103949.11
2018-05-18T07:54:07.557Z,103622.84
2018-05-18T07:56:35.107Z,103512.06
2018-05-18T07:59:02.634Z,103582.19
2018-05-18T08:01:30.531Z,103855.59
2018-05-18T08:03:58.052Z,103650.28
2018-05-18T08:06:25.573Z,103645.20
2018-05-18T08:08:53.123Z,103746.84
2018-05-18T08:11:20.657Z,103796.64
2018-05-18T08:13:48.230Z,103946.06
2018-05-18T08:16:15.745Z,103724.48
2018-05-18T08:18:43.354Z,103576.09
2018-05-18T08:21:10.906Z,103603.53
2018-05-18T08:23:42.283Z,103843.40
2018-05-18T08:26:09.865Z,103735.66
2018-05-18T08:28:49.377Z,103641.14
2018-05-18T08:31:17.126Z,103456.17
2018-05-18T08:33:44.642Z,103697.04
2018-05-18T08:36:12.157Z,103413.48
2018-05-18T08:38:39.833Z,103423.64
2018-05-18T08:41:07.358Z,103424.66
2018-05-18T08:43:34.877Z,103385.03
2018-05-18T08:46:02.420Z,103362.67
2018-05-18T08:48:29.937Z,103463.28
2018-05-18T08:50:57.487Z,103727.53
2018-05-18T08:53:25.012Z,103562.88
2018-05-18T08:55:52.561Z,103557.80
2018-05-18T08:58:20.073Z,103630.98
2018-05-18T09:00:47.800Z,103497.84
2018-05-18T09:03:15.322Z,103501.91
2018-05-18T09:05:42.974Z,103411.45
2018-05-18T09:08:10.493Z,103165.52
2018-05-18T09:10:38.014Z,103407.39
2018-05-18T09:13:05.679Z,103326.09
2018-05-18T09:15:33.192Z,103359.63
2018-05-18T09:18:00.710Z,103631.99
2018-05-18T09:20:28.250Z,103400.27
2018-05-18T09:22:55.781Z,103536.45
2018-05-18T09:25:23.330Z,103233.61
2018-05-18T09:27:50.858Z,102930.78
2018-05-18T09:30:18.531Z,103221.41
2018-05-18T09:32:46.079Z,102975.49
2018-05-18T09:35:13.666Z,102973.46
2018-05-18T09:37:41.185Z,102802.75
2018-05-18T09:40:08.703Z,103446.00
2018-05-18T09:42:36.241Z,103273.23
2018-05-18T09:45:03.778Z,103172.63
2018-05-18T09:47:31.302Z,103250.88
2018-05-18T09:49:58.850Z,103208.20
2018-05-18T09:52:26.384Z,102865.75
2018-05-18T09:54:54.039Z,102975.49
2018-05-18T09:57:21.483Z,102984.64
2018-05-18T09:59:49.062Z,103049.67
2018-05-18T10:02:16.592Z,102852.54
2018-05-18T10:04:44.126Z,103026.30
2018-05-18T10:07:11.670Z,102775.31
2018-05-18T10:09:39.185Z,102588.36
2018-05-18T10:12:06.729Z,102964.31
2018-05-18T10:14:34.262Z,102658.47
2018-05-18T10:17:01.806Z,102983.63
2018-05-18T10:19:29.322Z,102626.97
2018-05-18T10:21:56.876Z,102654.41
2018-05-18T10:24:24.401Z,102603.59
2018-05-18T10:26:52.006Z,102766.17
2018-05-18T10:29:19.709Z,102804.78
2018-05-18T10:31:47.229Z,102865.75
2018-05-18T10:34:14.762Z,102808.84
2018-05-18T10:36:42.663Z,102579.22
2018-05-18T10:39:10.178Z,102567.02
2018-05-18T10:41:37.698Z,102829.17
2018-05-18T10:44:05.233Z,102953.14
2018-05-18T10:46:32.812Z,102753.98
2018-05-18T10:49:00.338Z,102513.17
2018-05-18T10:51:27.862Z,102801.73
2018-05-18T10:53:55.406Z,102741.78
2018-05-18T10:56:22.921Z,102599.53
2018-05-18T10:58:50.467Z,102518.25
2018-05-18T11:01:17.992Z,102841.36
2018-05-18T11:03:45.565Z,102616.80
2018-05-18T11:06:13.091Z,102886.07
2018-05-18T11:08:40.606Z,102537.55
2018-05-18T11:11:08.155Z,102895.22
2018-05-18T11:13:35.678Z,102714.34
2018-05-18T11:16:03.242Z,102543.66
2018-05-18T11:18:30.757Z,102538.57
2018-05-18T11:20:58.273Z,102540.61
2018-05-18T11:23:25.817Z,102824.09
2018-05-18T11:25:53.346Z,102609.70
2018-05-18T11:28:20.938Z,102564.98
2018-05-18T11:30:48.453Z,102706.22
2018-05-18T11:33:16.182Z,102867.78
2018-05-18T11:35:43.546Z,102763.13
2018-05-18T11:38:11.062Z,102444.08
2018-05-18T11:40:38.727Z,102596.48
2018-05-18T11:43:06.246Z,102312.00
2018-05-18T11:45:33.775Z,102359.75
2018-05-18T11:48:01.413Z,102960.25
2018-05-18T11:50:28.894Z,102707.23
2018-05-18T11:52:56.455Z,102935.86
2018-05-18T11:55:23.969Z,102570.06
2018-05-18T11:57:51.506Z,102756.01
2018-05-18T12:00:19.046Z,102679.80
2018-05-18T12:02:46.656Z,102891.16
2018-05-18T12:05:14.182Z,102589.37
2018-05-18T12:07:41.697Z,102180.95
2018-05-18T12:10:09.714Z,102349.59
2018-05-18T12:12:37.229Z,102655.42
2018-05-18T12:15:04.746Z,102362.80
2018-05-18T12:17:32.303Z,102831.20
2018-05-18T12:19:59.826Z,102920.63
2018-05-18T12:22:27.370Z,102710.28
2018-05-18T12:24:54.907Z,102454.24
2018-05-18T12:27:22.613Z,102278.48
2018-05-18T12:29:50.130Z,102279.49
2018-05-18T12:32:17.660Z,102513.17
2018-05-18T12:34:45.662Z,102359.75
2018-05-18T12:37:13.177Z,101970.66
2018-05-18T12:39:40.693Z,102554.83
2018-05-18T12:42:08.229Z,102531.45
2018-05-18T12:44:35.758Z,102551.78
2018-05-18T12:47:03.713Z,102374.99
2018-05-18T12:49:31.277Z,102362.80
2018-05-18T12:51:58.822Z,102278.48
2018-05-18T12:54:26.361Z,102325.21
2018-05-18T12:56:53.881Z,102387.19
2018-05-18T12:59:21.522Z,102423.77
2018-05-18T13:01:48.986Z,102337.41
2018-05-18T13:04:16.502Z,102411.57
2018-05-18T13:06:44.199Z,102320.12
2018-05-18T13:09:11.732Z,102130.16
2018-05-18T13:11:39.267Z,102283.56
2018-05-18T13:14:06.815Z,102175.87
2018-05-18T13:16:34.339Z,101936.12
2018-05-18T13:19:01.905Z,102119.99
2018-05-18T13:21:29.427Z,102113.90
2018-05-18T13:23:56.951Z,102197.20
2018-05-18T13:26:24.529Z,102278.48
2018-05-18T13:28:52.041Z,102286.61
2018-05-18T13:31:19.557Z,102550.77
2018-05-18T13:33:47.097Z,102312.00
2018-05-18T13:36:14.769Z,102337.41
2018-05-18T13:38:42.384Z,102012.30
2018-05-18T13:41:09.841Z,102167.73
2018-05-18T13:43:37.394Z,102292.70
2018-05-18T13:46:04.942Z,102494.88
2018-05-18T13:48:32.462Z,102380.07
2018-05-18T13:51:00.008Z,102305.91
2018-05-18T13:53:27.991Z,102003.16
2018-05-18T13:55:55.524Z,102001.13
2018-05-18T13:58:23.050Z,102214.47
2018-05-18T14:00:50.609Z,102139.30
2018-05-18T14:03:18.129Z,102226.66
2018-05-18T14:05:45.698Z,102157.58
2018-05-18T14:08:13.213Z,102234.79
2018-05-18T14:10:40.741Z,102250.03
2018-05-18T14:13:08.312Z,101881.27
2018-05-18T14:15:35.834Z,102034.66
2018-05-18T14:18:03.410Z,102052.94
2018-05-18T14:20:30.927Z,101816.25
2018-05-18T14:22:58.450Z,101926.97
2018-05-18T14:25:26.026Z,102121.01
2018-05-18T14:27:53.551Z,101947.30
2018-05-18T14:30:21.082Z,101886.34
2018-05-18T14:32:48.624Z,101911.73
2018-05-18T14:35:16.172Z,101880.25
2018-05-18T14:37:43.785Z,101824.38
2018-05-18T14:40:11.262Z,101984.88
2018-05-18T14:42:38.946Z,101936.12
2018-05-18T14:45:06.487Z,102070.22
2018-05-18T14:47:34.022Z,102121.01
2018-05-18T14:50:02.067Z,102160.62
2018-05-18T14:52:29.599Z,102377.02
2018-05-18T14:54:57.117Z,102302.86
2018-05-18T14:57:24.668Z,102454.24
2018-05-18T14:59:52.238Z,102418.68
2018-05-18T15:02:19.937Z,102359.75
2018-05-18T15:04:47.491Z,102582.27
2018-05-18T15:07:15.010Z,102409.54
2018-05-18T15:09:42.549Z,102288.64
2018-05-18T15:12:10.071Z,102241.91
2018-05-18T15:14:37.662Z,102003.16
2018-05-18T15:17:05.203Z,102062.09
2018-05-18T15:19:32.751Z,102090.53
2018-05-18T15:22:00.289Z,101939.16
2018-05-18T15:24:27.892Z,101687.23
2018-05-18T15:26:55.422Z,102327.24
2018-05-18T15:29:22.945Z,102386.17
2018-05-18T15:31:50.512Z,102032.63
2018-05-18T15:34:18.041Z,102143.36
2018-05-18T15:36:45.627Z,102227.68
2018-05-18T15:39:13.155Z,102272.38
2018-05-18T15:41:40.674Z,102215.48
2018-05-18T15:44:08.218Z,102178.91
2018-05-18T15:46:35.737Z,102446.11
2018-05-18T15:49:03.254Z,102223.61
2018-05-18T15:51:30.898Z,102256.13
2018-05-18T15:53:58.413Z,102342.48
2018-05-18T15:56:26.448Z,102358.73
2018-05-18T15:58:53.973Z,102420.71
2018-05-18T16:01:21.489Z,102618.84
2018-05-18T16:03:49.162Z,102291.69
2018-05-18T16:06:16.695Z,102325.21
2018-05-18T16:08:44.228Z,102425.80
2018-05-18T16:11:11.773Z,102445.09
2018-05-18T16:13:39.290Z,102429.86
2018-05-18T16:16:06.865Z,102308.95
2018-05-18T16:18:34.391Z,102216.50
2018-05-18T16:21:02.056Z,102464.40
2018-05-18T16:23:29.754Z,102248.00
2018-05-18T16:25:57.270Z,102261.20
2018-05-18T16:28:24.785Z,102145.39
2018-05-18T16:30:52.790Z,102284.58
2018-05-18T16:33:20.311Z,102151.48
2018-05-18T16:35:47.839Z,102239.87
2018-05-18T16:38:15.428Z,102626.97
2018-05-18T16:40:42.959Z,102593.44
2018-05-18T16:43:10.478Z,102617.82
2018-05-18T16:45:38.425Z,102648.30
2018-05-18T16:48:05.947Z,102335.37
2018-05-18T16:50:33.478Z,102724.52
2018-05-18T16:53:01.015Z,102734.67
2018-05-18T16:55:28.603Z,102766.17
2018-05-18T16:57:56.204Z,102747.88
2018-05-18T17:00:23.709Z,102880.99
2018-05-18T17:02:51.230Z,102850.51
2018-05-18T17:05:18.770Z,102810.88
2018-05-18T17:07:46.317Z,102938.91
2018-05-18T17:10:13.899Z,102732.64
2018-05-18T17:12:41.431Z,102603.59
2018-05-18T17:15:08.950Z,102793.61
2018-05-18T17:17:36.894Z,102727.56
2018-05-18T17:20:04.425Z,102634.08
2018-05-18T17:22:31.960Z,102548.73
2018-05-18T17:24:59.498Z,102813.92
2018-05-18T17:27:27.023Z,102999.87
2018-05-18T17:29:55.157Z,102939.92
2018-05-18T17:32:22.673Z,103052.72
2018-05-18T17:34:50.202Z,103117.76
2018-05-18T17:37:18.076Z,103114.71
2018-05-18T17:39:45.605Z,103212.27
2018-05-18T17:42:13.150Z,103164.50
2018-05-18T17:44:40.721Z,103068.98
2018-05-18T17:47:08.243Z,102952.13
2018-05-18T17:49:35.764Z,103109.62
2018-05-18T17:52:03.310Z,103168.56
2018-05-18T17:54:31.005Z,103042.56
2018-05-18T17:56:58.433Z,103073.05
2018-05-18T17:59:25.955Z,103028.33
2018-05-18T18:01:53.667Z,102962.28
2018-05-18T18:04:21.203Z,102711.30
2018-05-18T18:06:48.742Z,102791.58
2018-05-18T18:09:16.266Z,103160.44
2018-05-18T18:11:43.813Z,103194.98
2018-05-18T18:14:11.337Z,103279.34
2018-05-18T18:16:39.068Z,103399.26
2018-05-18T18:19:06.589Z,103354.55
2018-05-18T18:21:34.110Z,103404.34
2018-05-18T18:24:01.644Z,103520.20
2018-05-18T18:26:29.166Z,103503.94
2018-05-18T18:28:56.709Z,103510.03
2018-05-18T18:31:24.393Z,103623.86
2018-05-18T18:33:51.920Z,103623.86
2018-05-18T18:36:19.457Z,103656.39
2018-05-18T18:38:47.058Z,103766.16
2018-05-18T18:41:14.583Z,103656.39
2018-05-18T18:43:42.100Z,103686.88
2018-05-18T18:46:09.750Z,103716.35
2018-05-18T18:48:37.265Z,103682.81
2018-05-18T18:51:04.781Z,103787.50
2018-05-18T18:53:32.323Z,103827.14
2018-05-18T18:56:00.031Z,103921.66
2018-05-18T18:58:27.562Z,103899.30
2018-05-18T19:00:55.090Z,103798.68
2018-05-18T19:03:22.635Z,103804.77
2018-05-18T19:05:50.163Z,103885.08
2018-05-18T19:08:17.719Z,103911.50
2018-05-18T19:10:45.254Z,103969.44
2018-05-18T19:13:12.799Z,104113.77
2018-05-18T19:15:40.322Z,104037.54
2018-05-18T19:18:07.868Z,104203.23
2018-05-18T19:20:35.412Z,104190.02
2018-05-18T19:23:02.962Z,104186.97
2018-05-18T19:25:30.550Z,104200.17
2018-05-18T19:27:58.070Z,104252.02
2018-05-18T19:30:25.586Z,104300.81
2018-05-18T19:32:53.123Z,104334.36
2018-05-18T19:35:20.645Z,104336.39
2018-05-18T19:37:48.200Z,104319.11
2018-05-18T19:40:15.730Z,104382.14
2018-05-18T19:42:43.397Z,104368.92
2018-05-18T19:45:10.914Z,104371.98
2018-05-18T19:47:38.435Z,104376.04
2018-05-18T19:50:06.405Z,104410.60
2018-05-18T19:52:33.926Z,104430.94
2018-05-18T19:55:01.441Z,104426.87
2018-05-18T19:57:29.065Z,104408.57
2018-05-18T19:59:56.533Z,104429.92
2018-05-18T20:02:24.194Z,104402.47
2018-05-18T20:04:51.742Z,104404.50
2018-05-18T20:07:19.314Z,104386.20
2018-05-18T20:09:46.839Z,104367.91
2018-05-18T20:12:14.414Z,104357.74
2018-05-18T20:14:41.930Z,104321.14
2018-05-18T20:17:09.454Z,104264.22
2018-05-18T20:19:37.014Z,104232.70
2018-05-18T20:22:04.561Z,104284.55
2018-05-18T20:24:32.111Z,104228.64
2018-05-18T20:26:59.639Z,104216.45
2018-05-18T20:29:27.393Z,104193.06
2018-05-18T20:31:54.919Z,104211.36
2018-05-18T20:34:22.448Z,104231.69
2018-05-18T20:36:50.008Z,104109.71
2018-05-18T20:39:17.538Z,104160.53
2018-05-18T20:41:45.085Z,104141.22
2018-05-18T20:44:12.606Z,104168.67
2018-05-18T20:46:40.182Z,104185.95
2018-05-18T20:49:07.697Z,104223.56
2018-05-18T20:51:35.270Z,104210.34
2018-05-18T20:54:02.794Z,104196.11
2018-05-18T20:56:30.309Z,104185.95
2018-05-18T20:58:57.850Z,104224.58
2018-05-18T21:01:25.365Z,104165.62
2018-05-18T21:03:53.322Z,104205.27
2018-05-18T21:06:20.858Z,104178.83
2018-05-18T21:08:48.377Z,104254.05
2018-05-18T21:11:15.936Z,104251.00
2018-05-18T21:13:43.461Z,104268.28
2018-05-18T21:16:11.125Z,104200.17
2018-05-18T21:18:38.645Z,104245.92
2018-05-18T21:21:06.161Z,104216.45
2018-05-18T21:23:33.697Z,104310.98
2018-05-18T21:26:01.213Z,104298.78
2018-05-18T21:28:28.767Z,104240.84
2018-05-18T21:30:56.729Z,104319.11
2018-05-18T21:33:24.249Z,104328.27
2018-05-18T21:35:51.774Z,104204.25
2018-05-18T21:38:19.437Z,104255.07
2018-05-18T21:40:46.963Z,104243.89
2018-05-18T21:43:14.504Z,104281.50
2018-05-18T21:45:42.049Z,104294.72
2018-05-18T21:48:09.583Z,104278.45
2018-05-18T21:50:37.125Z,104285.56
2018-05-18T21:53:04.646Z,104253.04
2018-05-18T21:55:32.234Z,104209.33
2018-05-18T21:57:59.774Z,104234.74
2018-05-18T22:00:27.289Z,104281.50
2018-05-18T22:02:54.983Z,104297.77
2018-05-18T22:05:22.507Z,104296.75
2018-05-18T22:07:50.026Z,104308.95
2018-05-18T22:10:17.569Z,104337.41
2018-05-18T22:12:45.090Z,104382.14
2018-05-18T22:15:13.067Z,104291.67
2018-05-18T22:17:40.582Z,104301.83
2018-05-18T22:20:08.096Z,104314.03
2018-05-18T22:22:35.634Z,104351.64
2018-05-18T22:25:03.150Z,104313.02
2018-05-18T22:27:30.808Z,104330.30
2018-05-18T22:29:58.329Z,104317.08
2018-05-18T22:32:25.854Z,104346.56
2018-05-18T22:34:53.463Z,104353.67
2018-05-18T22:37:20.985Z,104402.47
2018-05-18T22:39:48.506Z,104411.62
2018-05-18T22:42:16.254Z,104388.24
2018-05-18T22:44:43.773Z,104374.01
2018-05-18T22:47:11.298Z,104408.57
2018-05-18T22:49:38.873Z,104443.14
2018-05-18T22:52:06.418Z,104410.60
2018-05-18T22:54:33.934Z,104421.78
2018-05-18T22:57:01.510Z,104336.39
2018-05-18T22:59:29.028Z,104387.22
2018-05-18T23:01:56.743Z,104440.08
2018-05-18T23:04:24.266Z,104444.16
2018-05-18T23:06:51.786Z,104422.80
2018-05-18T23:09:19.371Z,104376.04
2018-05-18T23:11:46.891Z,104394.34
2018-05-18T23:14:14.607Z,104391.29
2018-05-18T23:16:42.134Z,104448.22
2018-05-18T23:19:09.760Z,104406.54
2018-05-18T23:21:37.333Z,104424.84
2018-05-18T23:24:04.851Z,104344.53
2018-05-18T23:26:32.371Z,104436.02
2018-05-18T23:29:00.247Z,104486.84
2018-05-18T23:31:27.769Z,104460.42
2018-05-18T23:33:55.363Z,104448.22
2018-05-18T23:36:23.417Z,104433.98
2018-05-18T23:38:50.932Z,104359.78
2018-05-18T23:41:18.450Z,104303.87
2018-05-18T23:43:45.990Z,104256.09
2018-05-18T23:46:13.514Z,104328.27
2018-05-18T23:48:41.062Z,104401.45
2018-05-18T23:51:08.577Z,104451.27
2018-05-18T23:53:36.126Z,104414.67
2018-05-18T23:56:03.648Z,104474.65
2018-05-18T23:58:31.197Z,104461.44
